createdAt,value
2023-02-19T00:00:01.432Z,1.16
2023-02-19T00:01:18.348Z,0.87
2023-02-19T00:02:35.365Z,0.44
2023-02-19T00:03:52.332Z,0.61
2023-02-19T00:05:09.374Z,0.65
2023-02-19T00:06:26.341Z,0.83
2023-02-19T00:07:43.437Z,0.88
2023-02-19T00:09:00.417Z,0.6
2023-02-19T00:10:17.367Z,0.34
2023-02-19T00:11:34.365Z,0.54
2023-02-19T00:12:51.354Z,0.68
2023-02-19T00:14:08.390Z,0.43
2023-02-19T00:15:25.405Z,0.6
2023-02-19T00:16:42.442Z,0.44
2023-02-19T00:17:59.381Z,0.77
2023-02-19T00:19:16.389Z,0.47
2023-02-19T00:20:33.441Z,0.43
2023-02-19T00:21:50.344Z,0.7
2023-02-19T00:23:07.399Z,0.27
2023-02-19T00:24:24.785Z,0.49
2023-02-19T00:25:41.377Z,0.65
2023-02-19T00:26:58.352Z,0.18
2023-02-19T00:28:15.375Z,0.58
2023-02-19T00:29:32.416Z,0.64
2023-02-19T00:30:49.474Z,0.7
2023-02-19T00:32:06.517Z,0.43
2023-02-19T00:33:23.401Z,0.44
2023-02-19T00:34:40.410Z,0.3
2023-02-19T00:35:57.392Z,0.53
2023-02-19T00:37:14.450Z,0.41
2023-02-19T00:38:31.499Z,0.38
2023-02-19T00:39:48.401Z,0.68
2023-02-19T00:41:05.387Z,0.59
2023-02-19T00:42:22.414Z,0.63
2023-02-19T00:43:39.456Z,0.29
2023-02-19T00:44:56.426Z,0.38
2023-02-19T00:46:13.472Z,0.46
2023-02-19T00:47:30.427Z,0.58
2023-02-19T00:48:47.657Z,0.49
2023-02-19T00:50:04.426Z,0.27
2023-02-19T00:51:22.160Z,0.38
2023-02-19T00:52:39.821Z,0.67
2023-02-19T00:53:57.460Z,0.5
2023-02-19T00:55:14.413Z,0.12
2023-02-19T00:56:31.417Z,0.56
2023-02-19T00:57:48.448Z,0.24
2023-02-19T00:59:05.436Z,0.37
2023-02-19T01:00:22.479Z,0.59
2023-02-19T01:01:39.614Z,0.53
2023-02-19T01:02:56.481Z,0.54
2023-02-19T01:04:13.544Z,0.57
2023-02-19T01:05:30.428Z,0.68
2023-02-19T01:06:47.434Z,0.63
2023-02-19T01:08:04.454Z,0.67
2023-02-19T01:09:21.514Z,0.96
2023-02-19T01:10:38.459Z,1
2023-02-19T01:11:55.455Z,0.54
2023-02-19T01:13:12.435Z,0.51
2023-02-19T01:14:29.464Z,0.88
2023-02-19T01:15:46.548Z,0.88
2023-02-19T01:17:03.419Z,0.62
2023-02-19T01:18:20.474Z,0.75
2023-02-19T01:19:37.499Z,0.42
2023-02-19T01:20:54.449Z,0.62
2023-02-19T01:22:11.453Z,0.79
2023-02-19T01:23:28.454Z,0.64
2023-02-19T01:24:45.530Z,0.99
2023-02-19T01:26:02.497Z,0.55
2023-02-19T01:27:19.466Z,0.75
2023-02-19T01:28:36.453Z,0.35
2023-02-19T01:29:53.489Z,0.64
2023-02-19T01:31:10.911Z,0.45
2023-02-19T01:32:27.488Z,0.54
2023-02-19T01:33:44.466Z,0.87
2023-02-19T01:35:01.469Z,0.75
2023-02-19T01:36:18.479Z,0.76
2023-02-19T01:37:35.471Z,0.79
2023-02-19T01:38:52.456Z,0.93
2023-02-19T01:40:09.497Z,0.46
2023-02-19T01:41:26.525Z,0.55
2023-02-19T01:42:43.496Z,0.84
2023-02-19T01:44:00.539Z,0.75
2023-02-19T01:45:17.506Z,0.59
2023-02-19T01:46:34.521Z,0.97
2023-02-19T01:47:51.532Z,0.61
2023-02-19T01:49:08.567Z,0.43
2023-02-19T01:50:25.493Z,0.96
2023-02-19T01:51:42.478Z,0.69
2023-02-19T01:52:59.500Z,0.67
2023-02-19T01:54:16.597Z,0.5
2023-02-19T01:55:33.536Z,0.51
2023-02-19T01:56:50.526Z,0.59
2023-02-19T01:58:07.503Z,0.89
2023-02-19T01:59:24.510Z,0.84
2023-02-19T02:00:41.550Z,0.58
2023-02-19T02:01:58.552Z,0.74
2023-02-19T02:03:15.507Z,1.05
2023-02-19T02:04:32.561Z,0.53
2023-02-19T02:05:49.506Z,0.87
2023-02-19T02:07:06.501Z,0.66
2023-02-19T02:08:23.512Z,1.16
2023-02-19T02:09:40.575Z,1.24
2023-02-19T02:10:57.538Z,0.69
2023-02-19T02:12:14.547Z,1.1
2023-02-19T02:13:31.602Z,0.7
2023-02-19T02:14:48.622Z,1.09
2023-02-19T02:16:05.605Z,1
2023-02-19T02:17:22.544Z,0.43
2023-02-19T02:18:39.540Z,0.75
2023-02-19T02:19:56.680Z,0.87
2023-02-19T02:21:13.568Z,1.36
2023-02-19T02:22:30.541Z,0.92
2023-02-19T02:23:47.566Z,0.6
2023-02-19T02:25:04.556Z,1.24
2023-02-19T02:26:21.592Z,0.69
2023-02-19T02:27:38.541Z,1.05
2023-02-19T02:28:55.564Z,0.65
2023-02-19T02:30:12.646Z,1.02
2023-02-19T02:31:29.670Z,0.79
2023-02-19T02:32:46.571Z,0.86
2023-02-19T02:34:03.569Z,0.48
2023-02-19T02:35:20.555Z,0.88
2023-02-19T02:36:37.596Z,1.03
2023-02-19T02:37:54.596Z,0.91
2023-02-19T02:39:11.566Z,0.58
2023-02-19T02:40:28.567Z,1.14
2023-02-19T02:41:45.580Z,0.56
2023-02-19T02:43:02.594Z,0.87
2023-02-19T02:44:19.610Z,0.7
2023-02-19T02:45:36.930Z,0.32
2023-02-19T02:46:53.603Z,0.47
2023-02-19T02:48:10.606Z,0.72
2023-02-19T02:49:27.589Z,0.7
2023-02-19T02:50:44.578Z,0.37
2023-02-19T02:52:01.656Z,0.47
2023-02-19T02:53:18.627Z,0.68
2023-02-19T02:54:35.597Z,0.59
2023-02-19T02:55:52.592Z,0.62
2023-02-19T02:57:09.612Z,0.65
2023-02-19T02:58:26.611Z,0.39
2023-02-19T02:59:43.608Z,0.51
2023-02-19T03:01:00.630Z,0.53
2023-02-19T03:02:17.679Z,0.88
2023-02-19T03:03:34.648Z,0.92
2023-02-19T03:04:51.617Z,0.68
2023-02-19T03:06:08.584Z,0.44
2023-02-19T03:07:25.578Z,0.77
2023-02-19T03:08:42.631Z,0.62
2023-02-19T03:09:59.606Z,0.72
2023-02-19T03:11:16.591Z,0.64
2023-02-19T03:12:33.645Z,0.96
2023-02-19T03:13:50.624Z,0.58
2023-02-19T03:15:07.608Z,0.69
2023-02-19T03:16:24.723Z,0.75
2023-02-19T03:17:41.646Z,0.65
2023-02-19T03:18:58.632Z,0.62
2023-02-19T03:20:15.601Z,0.78
2023-02-19T03:21:32.948Z,0.39
2023-02-19T03:22:49.598Z,0.38
2023-02-19T03:24:06.638Z,0.87
2023-02-19T03:25:23.677Z,0.51
2023-02-19T03:26:40.643Z,0.8
2023-02-19T03:27:57.621Z,0.55
2023-02-19T03:29:14.647Z,0.81
2023-02-19T03:30:31.720Z,1.12
2023-02-19T03:31:48.747Z,0.47
2023-02-19T03:33:05.684Z,0.72
2023-02-19T03:34:22.664Z,0.67
2023-02-19T03:35:39.648Z,0.96
2023-02-19T03:36:56.627Z,0.8
2023-02-19T03:38:13.656Z,0.73
2023-02-19T03:39:30.707Z,1.01
2023-02-19T03:40:47.650Z,0.56
2023-02-19T03:42:04.647Z,0.85
2023-02-19T03:43:21.792Z,0.91
2023-02-19T03:44:38.630Z,0.69
2023-02-19T03:45:55.725Z,0.56
2023-02-19T03:47:12.640Z,0.73
2023-02-19T03:48:29.713Z,0.5
2023-02-19T03:49:48.916Z,0.45
2023-02-19T03:51:03.665Z,0.79
2023-02-19T03:52:20.646Z,0.72
2023-02-19T03:53:37.728Z,0.73
2023-02-19T03:54:54.648Z,0.41
2023-02-19T03:56:11.713Z,0.43
2023-02-19T03:57:28.658Z,0.64
2023-02-19T03:58:45.664Z,0.45
2023-02-19T04:00:02.692Z,0.36
2023-02-19T04:01:19.744Z,0.29
2023-02-19T04:02:36.662Z,0.97
2023-02-19T04:03:53.690Z,0.31
2023-02-19T04:05:12.040Z,0.71
2023-02-19T04:06:27.721Z,0.67
2023-02-19T04:07:44.691Z,0.31
2023-02-19T04:09:01.671Z,0.51
2023-02-19T04:10:18.728Z,0.8
2023-02-19T04:11:35.755Z,1.22
2023-02-19T04:12:52.730Z,0.64
2023-02-19T04:14:09.692Z,0.66
2023-02-19T04:15:26.725Z,0.6
2023-02-19T04:16:43.774Z,0.52
2023-02-19T04:18:00.706Z,1.13
2023-02-19T04:19:17.687Z,0.65
2023-02-19T04:20:34.778Z,0.68
2023-02-19T04:21:51.772Z,0.69
2023-02-19T04:23:08.734Z,0.6
2023-02-19T04:24:25.705Z,0.72
2023-02-19T04:25:42.721Z,0.85
2023-02-19T04:26:59.782Z,0.63
2023-02-19T04:28:16.737Z,0.65
2023-02-19T04:29:33.703Z,0.48
2023-02-19T04:30:50.759Z,0.62
2023-02-19T04:32:07.772Z,0.82
2023-02-19T04:33:24.709Z,0.98
2023-02-19T04:34:41.691Z,0.6
2023-02-19T04:35:58.741Z,0.22
2023-02-19T04:37:15.806Z,0.58
2023-02-19T04:38:32.715Z,0.71
2023-02-19T04:39:49.738Z,0.43
2023-02-19T04:41:06.763Z,0.71
2023-02-19T04:42:23.742Z,0.78
2023-02-19T04:43:40.741Z,0.74
2023-02-19T04:44:57.754Z,0.99
2023-02-19T04:46:15.022Z,0.45
2023-02-19T04:47:31.758Z,1.3
2023-02-19T04:48:48.741Z,0.83
2023-02-19T04:50:05.760Z,0.62
2023-02-19T04:51:22.783Z,0.77
2023-02-19T04:52:39.728Z,0.82
2023-02-19T04:53:56.739Z,1.65
2023-02-19T04:55:13.729Z,1.53
2023-02-19T04:56:30.755Z,0.74
2023-02-19T04:57:47.814Z,1.3
2023-02-19T04:59:04.733Z,0.98
2023-02-19T05:00:22.040Z,0.55
2023-02-19T05:01:38.761Z,1.09
2023-02-19T05:02:55.743Z,1.47
2023-02-19T05:04:12.871Z,1.16
2023-02-19T05:05:29.824Z,1.49
2023-02-19T05:06:46.736Z,1.76
2023-02-19T05:08:03.757Z,0.65
2023-02-19T05:09:20.758Z,1.32
2023-02-19T05:10:37.793Z,1.23
2023-02-19T05:11:54.777Z,0.86
2023-02-19T05:13:11.835Z,0.74
2023-02-19T05:14:28.773Z,0.64
2023-02-19T05:15:45.860Z,0.89
2023-02-19T05:17:02.774Z,0.74
2023-02-19T05:18:19.807Z,0.83
2023-02-19T05:19:36.780Z,0.91
2023-02-19T05:20:53.775Z,1.03
2023-02-19T05:22:10.895Z,1.13
2023-02-19T05:23:27.803Z,1.04
2023-02-19T05:24:44.816Z,0.75
2023-02-19T05:26:01.795Z,0.94
2023-02-19T05:27:18.831Z,0.81
2023-02-19T05:28:35.778Z,0.68
2023-02-19T05:29:52.788Z,1.1
2023-02-19T05:31:10.072Z,0.59
2023-02-19T05:32:26.801Z,0.99
2023-02-19T05:33:43.796Z,0.93
2023-02-19T05:35:00.782Z,0.83
2023-02-19T05:36:17.811Z,0.7
2023-02-19T05:37:34.836Z,0.94
2023-02-19T05:38:51.799Z,0.64
2023-02-19T05:40:08.842Z,0.79
2023-02-19T05:41:25.818Z,1
2023-02-19T05:42:42.813Z,0.6
2023-02-19T05:43:59.820Z,0.7
2023-02-19T05:45:16.873Z,1.11
2023-02-19T05:46:33.834Z,1.59
2023-02-19T05:47:50.803Z,0.82
2023-02-19T05:49:07.812Z,0.41
2023-02-19T05:50:24.858Z,0.92
2023-02-19T05:51:41.827Z,0.66
2023-02-19T05:52:58.840Z,0.65
2023-02-19T05:54:16.056Z,0.95
2023-02-19T05:55:32.899Z,1.28
2023-02-19T05:56:49.871Z,1.84
2023-02-19T05:58:06.832Z,1.49
2023-02-19T05:59:23.828Z,0.9
2023-02-19T06:00:40.867Z,0.61
2023-02-19T06:01:57.855Z,0.72
2023-02-19T06:03:14.826Z,1.34
2023-02-19T06:04:31.853Z,1.84
2023-02-19T06:05:48.927Z,2.03
2023-02-19T06:07:05.900Z,0.65
2023-02-19T06:08:22.833Z,1.17
2023-02-19T06:09:39.944Z,0.78
2023-02-19T06:10:56.869Z,0.81
2023-02-19T06:12:13.833Z,1.24
2023-02-19T06:13:30.836Z,0.79
2023-02-19T06:14:47.869Z,0.91
2023-02-19T06:16:04.894Z,1.17
2023-02-19T06:17:21.878Z,0.91
2023-02-19T06:18:38.913Z,0.92
2023-02-19T06:19:55.858Z,0.69
2023-02-19T06:21:13.215Z,0.47
2023-02-19T06:22:29.879Z,1.38
2023-02-19T06:23:46.862Z,1.72
2023-02-19T06:25:03.856Z,1.72
2023-02-19T06:26:20.852Z,1.13
2023-02-19T06:27:37.884Z,1.85
2023-02-19T06:28:54.908Z,1.11
2023-02-19T06:30:11.994Z,1.39
2023-02-19T06:31:29.024Z,1.32
2023-02-19T06:32:45.962Z,1.61
2023-02-19T06:34:02.866Z,1.9
2023-02-19T06:35:19.880Z,1.63
2023-02-19T06:36:36.884Z,2.04
2023-02-19T06:37:53.912Z,1.11
2023-02-19T06:39:10.862Z,1.48
2023-02-19T06:40:27.903Z,0.87
2023-02-19T06:41:44.885Z,0.96
2023-02-19T06:43:01.948Z,1.12
2023-02-19T06:44:18.883Z,0.96
2023-02-19T06:45:35.884Z,0.88
2023-02-19T06:46:52.964Z,1.49
2023-02-19T06:48:09.932Z,1.64
2023-02-19T06:49:26.915Z,1.07
2023-02-19T06:50:43.958Z,1.56
2023-02-19T06:52:00.906Z,1.62
2023-02-19T06:53:17.941Z,1.52
2023-02-19T06:54:34.920Z,1.49
2023-02-19T06:55:54.911Z,1.73
2023-02-19T06:57:11.940Z,2.42
2023-02-19T06:58:28.963Z,1.48
2023-02-19T06:59:45.912Z,1.71
2023-02-19T07:01:03.003Z,1.77
2023-02-19T07:02:19.908Z,1.47
2023-02-19T07:03:36.982Z,0.97
2023-02-19T07:04:53.901Z,2.19
2023-02-19T07:06:10.926Z,1.36
2023-02-19T07:07:27.894Z,1.18
2023-02-19T07:08:44.945Z,1.64
2023-02-19T07:10:01.984Z,1.08
2023-02-19T07:11:18.929Z,1.58
2023-02-19T07:12:35.953Z,1.73
2023-02-19T07:13:52.940Z,1.21
2023-02-19T07:15:09.926Z,1.03
2023-02-19T07:16:27.000Z,1.47
2023-02-19T07:17:43.956Z,1.13
2023-02-19T07:19:00.938Z,1.62
2023-02-19T07:20:17.931Z,0.96
2023-02-19T07:21:34.922Z,2.71
2023-02-19T07:22:52.129Z,1.76
2023-02-19T07:24:08.934Z,1.69
2023-02-19T07:25:25.922Z,1.93
2023-02-19T07:26:42.945Z,1.45
2023-02-19T07:27:59.973Z,2.03
2023-02-19T07:29:16.935Z,1.97
2023-02-19T07:30:34.018Z,1.12
2023-02-19T07:31:50.972Z,2.08
2023-02-19T07:33:10.336Z,1.47
2023-02-19T07:34:24.956Z,1.61
2023-02-19T07:35:41.966Z,1.88
2023-02-19T07:36:58.944Z,1.19
2023-02-19T07:38:15.983Z,1.69
2023-02-19T07:39:32.962Z,1.6
2023-02-19T07:40:49.935Z,2.86
2023-02-19T07:42:06.959Z,3.18
2023-02-19T07:43:24.031Z,2.55
2023-02-19T07:44:40.964Z,1.3
2023-02-19T07:45:57.989Z,2.16
2023-02-19T07:47:14.964Z,1.24
2023-02-19T07:48:32.015Z,1.55
2023-02-19T07:49:48.961Z,1.49
2023-02-19T07:51:06.011Z,1.94
2023-02-19T07:52:23.002Z,0.92
2023-02-19T07:53:40.034Z,1.92
2023-02-19T07:54:57.015Z,2.11
2023-02-19T07:56:13.983Z,1.69
2023-02-19T07:57:30.993Z,1.46
2023-02-19T07:58:47.986Z,1.21
2023-02-19T08:00:05.048Z,1.68
2023-02-19T08:01:22.120Z,2.45
2023-02-19T08:02:38.981Z,1.61
2023-02-19T08:03:55.982Z,2.23
2023-02-19T08:05:12.982Z,1.51
2023-02-19T08:06:30.011Z,1.06
2023-02-19T08:07:46.994Z,1.1
2023-02-19T08:09:04.058Z,1.44
2023-02-19T08:10:21.007Z,1.39
2023-02-19T08:11:38.014Z,1.76
2023-02-19T08:12:54.992Z,1.51
2023-02-19T08:14:12.032Z,0.97
2023-02-19T08:15:29.004Z,0.65
2023-02-19T08:16:46.016Z,1.2
2023-02-19T08:18:03.037Z,1.42
2023-02-19T08:19:20.041Z,1.12
2023-02-19T08:20:37.034Z,1.07
2023-02-19T08:21:54.030Z,1.68
2023-02-19T08:23:11.045Z,1.62
2023-02-19T08:24:28.028Z,1.81
2023-02-19T08:25:45.026Z,1.37
2023-02-19T08:27:02.026Z,1.58
2023-02-19T08:28:19.121Z,1.91
2023-02-19T08:29:36.039Z,1.37
2023-02-19T08:30:53.089Z,1.1
2023-02-19T08:32:10.142Z,2.27
2023-02-19T08:33:27.028Z,1.2
2023-02-19T08:34:44.047Z,0.54
2023-02-19T08:36:01.052Z,1.55
2023-02-19T08:37:18.023Z,1.27
2023-02-19T08:38:35.077Z,1.66
2023-02-19T08:39:52.064Z,0.7
2023-02-19T08:41:09.500Z,1.29
2023-02-19T08:42:26.064Z,1.01
2023-02-19T08:43:43.097Z,1.26
2023-02-19T08:45:00.036Z,0.96
2023-02-19T08:46:17.154Z,0.92
2023-02-19T08:47:34.050Z,0.96
2023-02-19T08:48:51.137Z,1.08
2023-02-19T08:50:08.088Z,0.78
2023-02-19T08:51:25.054Z,1.17
2023-02-19T08:52:42.078Z,0.65
2023-02-19T08:53:59.083Z,0.32
2023-02-19T08:55:16.061Z,1.4
2023-02-19T08:56:33.049Z,1.42
2023-02-19T08:57:50.679Z,1.15
2023-02-19T08:59:07.072Z,1.31
2023-02-19T09:00:24.083Z,0.87
2023-02-19T09:01:41.152Z,1.92
2023-02-19T09:02:58.067Z,2.91
2023-02-19T09:04:15.134Z,2.53
2023-02-19T09:05:32.083Z,1.54
2023-02-19T09:06:49.044Z,1.64
2023-02-19T09:08:06.058Z,1.61
2023-02-19T09:09:23.116Z,2.1
2023-02-19T09:10:40.082Z,1.6
2023-02-19T09:11:57.086Z,2.02
2023-02-19T09:13:14.054Z,1.9
2023-02-19T09:14:31.098Z,1.87
2023-02-19T09:15:48.106Z,2.03
2023-02-19T09:17:05.095Z,2.03
2023-02-19T09:18:22.128Z,1.25
2023-02-19T09:19:39.121Z,0.59
2023-02-19T09:20:56.084Z,2.13
2023-02-19T09:22:13.098Z,0.97
2023-02-19T09:23:30.109Z,1.25
2023-02-19T09:24:47.214Z,0.66
2023-02-19T09:26:04.100Z,1.81
2023-02-19T09:27:21.169Z,1.96
2023-02-19T09:28:38.093Z,1.22
2023-02-19T09:29:55.464Z,0.82
2023-02-19T09:31:12.608Z,0.6
2023-02-19T09:32:29.175Z,1.96
2023-02-19T09:33:46.098Z,1.77
2023-02-19T09:35:03.160Z,1.38
2023-02-19T09:36:20.139Z,1.47
2023-02-19T09:37:37.143Z,1.61
2023-02-19T09:38:54.097Z,1.94
2023-02-19T09:40:11.139Z,1.28
2023-02-19T09:41:28.232Z,0.91
2023-02-19T09:42:45.218Z,1.3
2023-02-19T09:44:02.130Z,1.7
2023-02-19T09:45:19.190Z,1.48
2023-02-19T09:46:36.142Z,1.89
2023-02-19T09:47:53.116Z,1.34
2023-02-19T09:49:10.118Z,1.5
2023-02-19T09:50:27.180Z,1.71
2023-02-19T09:51:44.128Z,1.85
2023-02-19T09:53:01.146Z,1.52
2023-02-19T09:54:18.178Z,2.06
2023-02-19T09:55:35.149Z,1.46
2023-02-19T09:56:52.196Z,2.14
2023-02-19T09:58:09.158Z,1.67
2023-02-19T09:59:26.143Z,1.9
2023-02-19T10:00:43.164Z,1.08
2023-02-19T10:02:00.148Z,1.5
2023-02-19T10:03:17.148Z,1.47
2023-02-19T10:04:34.181Z,1.34
2023-02-19T10:05:51.139Z,1.58
2023-02-19T10:07:08.150Z,1.61
2023-02-19T10:08:25.139Z,1.4
2023-02-19T10:09:42.166Z,1.26
2023-02-19T10:10:59.192Z,2.59
2023-02-19T10:12:16.153Z,1.33
2023-02-19T10:13:33.180Z,2.32
2023-02-19T10:14:50.167Z,1.16
2023-02-19T10:16:07.260Z,1
2023-02-19T10:17:24.176Z,2.12
2023-02-19T10:18:41.165Z,1.51
2023-02-19T10:19:58.158Z,2.13
2023-02-19T10:21:15.219Z,1.68
2023-02-19T10:22:32.191Z,2.2
2023-02-19T10:23:49.147Z,1.29
2023-02-19T10:25:06.164Z,1.29
2023-02-19T10:26:23.197Z,1.96
2023-02-19T10:27:40.201Z,1.76
2023-02-19T10:28:57.204Z,2.14
2023-02-19T10:30:14.222Z,3.05
2023-02-19T10:31:31.232Z,2.73
2023-02-19T10:32:48.396Z,2.49
2023-02-19T10:34:05.178Z,2.51
2023-02-19T10:35:22.171Z,2.83
2023-02-19T10:36:39.216Z,2.76
2023-02-19T10:37:56.258Z,2.66
2023-02-19T10:39:13.189Z,1.63
2023-02-19T10:40:30.192Z,2.45
2023-02-19T10:41:47.273Z,2.25
2023-02-19T10:43:04.241Z,2.77
2023-02-19T10:44:21.187Z,1.35
2023-02-19T10:45:38.206Z,1.87
2023-02-19T10:46:55.194Z,1.33
2023-02-19T10:48:12.232Z,1.4
2023-02-19T10:49:29.190Z,2.55
2023-02-19T10:50:46.217Z,2.56
2023-02-19T10:52:03.210Z,2.69
2023-02-19T10:53:20.253Z,2.05
2023-02-19T10:54:37.204Z,2.79
2023-02-19T10:55:54.205Z,1.87
2023-02-19T10:57:11.271Z,3.39
2023-02-19T10:58:28.222Z,2.78
2023-02-19T10:59:45.283Z,2.9
2023-02-19T11:01:03.451Z,1.89
2023-02-19T11:02:19.274Z,2.19
2023-02-19T11:03:36.202Z,2.17
2023-02-19T11:04:53.208Z,1.57
2023-02-19T11:06:10.231Z,1.5
2023-02-19T11:07:27.311Z,2.5
2023-02-19T11:08:44.233Z,2.34
2023-02-19T11:10:01.255Z,2.07
2023-02-19T11:11:18.227Z,2.45
2023-02-19T11:12:35.260Z,1.45
2023-02-19T11:13:52.226Z,3.21
2023-02-19T11:15:09.249Z,2.96
2023-02-19T11:16:26.279Z,2.7
2023-02-19T11:17:43.286Z,2.98
2023-02-19T11:19:00.233Z,1.72
2023-02-19T11:20:17.229Z,1.64
2023-02-19T11:21:34.234Z,1.96
2023-02-19T11:22:51.261Z,2.99
2023-02-19T11:24:08.247Z,1.99
2023-02-19T11:25:25.251Z,2.46
2023-02-19T11:26:42.254Z,2.09
2023-02-19T11:27:59.286Z,1.77
2023-02-19T11:29:16.239Z,2.98
2023-02-19T11:30:35.723Z,2.63
2023-02-19T11:31:50.332Z,2.22
2023-02-19T11:33:07.276Z,1.76
2023-02-19T11:34:24.269Z,2.13
2023-02-19T11:35:41.263Z,2.47
2023-02-19T11:36:58.267Z,2.93
2023-02-19T11:38:15.263Z,2.7
2023-02-19T11:39:32.276Z,2.42
2023-02-19T11:40:49.261Z,2.95
2023-02-19T11:42:06.274Z,2.34
2023-02-19T11:43:23.332Z,2.58
2023-02-19T11:44:40.302Z,2.31
2023-02-19T11:45:57.417Z,1.82
2023-02-19T11:47:14.282Z,1.57
2023-02-19T11:48:31.383Z,3.55
2023-02-19T11:49:48.296Z,3.37
2023-02-19T11:51:05.277Z,3.78
2023-02-19T11:52:22.363Z,3.74
2023-02-19T11:53:39.512Z,4.24
2023-02-19T11:54:56.336Z,3.83
2023-02-19T11:56:13.319Z,4.71
2023-02-19T11:57:30.301Z,5.73
2023-02-19T11:58:47.350Z,3.86
2023-02-19T12:00:04.401Z,2.54
2023-02-19T12:01:21.313Z,2.56
2023-02-19T12:02:38.295Z,2.35
2023-02-19T12:03:55.303Z,2.46
2023-02-19T12:05:12.400Z,3.06
2023-02-19T12:06:29.342Z,3.03
2023-02-19T12:07:46.316Z,2.23
2023-02-19T12:09:03.302Z,2.02
2023-02-19T12:10:20.338Z,2.35
2023-02-19T12:11:37.290Z,2.99
2023-02-19T12:12:54.286Z,1.96
2023-02-19T12:14:11.376Z,1.28
2023-02-19T12:15:28.349Z,1.97
2023-02-19T12:16:45.478Z,1.72
2023-02-19T12:18:02.331Z,1.99
2023-02-19T12:19:19.300Z,3.49
2023-02-19T12:20:36.489Z,3.22
2023-02-19T12:21:53.320Z,2.89
2023-02-19T12:23:10.331Z,2.73
2023-02-19T12:24:27.350Z,1.4
2023-02-19T12:25:44.385Z,3
2023-02-19T12:27:01.306Z,3.09
2023-02-19T12:28:18.322Z,4.8
2023-02-19T12:29:35.346Z,2.81
2023-02-19T12:30:52.390Z,2.56
2023-02-19T12:32:09.498Z,1.86
2023-02-19T12:33:26.333Z,3
2023-02-19T12:34:43.362Z,3.93
2023-02-19T12:36:00.366Z,3.48
2023-02-19T12:37:17.388Z,4.35
2023-02-19T12:38:34.322Z,3.97
2023-02-19T12:39:51.332Z,4.4
2023-02-19T12:41:08.343Z,2.47
2023-02-19T12:42:25.385Z,2.82
2023-02-19T12:43:42.336Z,2.65
2023-02-19T12:44:59.362Z,2.74
2023-02-19T12:46:16.444Z,2.12
2023-02-19T12:47:33.369Z,2.54
2023-02-19T12:48:50.348Z,3.34
2023-02-19T12:50:07.362Z,1.77
2023-02-19T12:51:24.402Z,2.48
2023-02-19T12:52:41.364Z,2.98
2023-02-19T12:53:58.372Z,3.13
2023-02-19T12:55:15.364Z,2.55
2023-02-19T12:56:32.420Z,2.45
2023-02-19T12:57:49.356Z,1.87
2023-02-19T12:59:06.383Z,2.04
2023-02-19T13:00:23.364Z,2.17
2023-02-19T13:01:40.440Z,2.99
2023-02-19T13:02:57.415Z,2.67
2023-02-19T13:04:14.370Z,1.99
2023-02-19T13:05:31.366Z,1.9
2023-02-19T13:06:48.375Z,2.25
2023-02-19T13:08:05.426Z,3.82
2023-02-19T13:09:22.432Z,3.56
2023-02-19T13:10:39.401Z,2.52
2023-02-19T13:11:56.401Z,2.73
2023-02-19T13:13:13.411Z,3.41
2023-02-19T13:14:30.375Z,2.75
2023-02-19T13:15:47.396Z,2.98
2023-02-19T13:17:04.474Z,2.53
2023-02-19T13:18:21.418Z,2.74
2023-02-19T13:19:38.431Z,2.36
2023-02-19T13:20:55.402Z,1.66
2023-02-19T13:22:12.404Z,1.8
2023-02-19T13:23:29.450Z,0.94
2023-02-19T13:24:46.390Z,1.8
2023-02-19T13:26:03.403Z,2.42
2023-02-19T13:27:20.405Z,1.58
2023-02-19T13:28:37.473Z,3.76
2023-02-19T13:29:54.424Z,1.54
2023-02-19T13:31:11.804Z,3.27
2023-02-19T13:32:28.417Z,2.39
2023-02-19T13:33:45.472Z,2.51
2023-02-19T13:35:02.417Z,2.52
2023-02-19T13:36:19.425Z,2.51
2023-02-19T13:37:36.411Z,2
2023-02-19T13:38:53.492Z,3.38
2023-02-19T13:40:10.422Z,2.24
2023-02-19T13:41:27.444Z,3.09
2023-02-19T13:42:44.429Z,3.54
2023-02-19T13:44:01.485Z,3.64
2023-02-19T13:45:18.597Z,3.62
2023-02-19T13:46:35.443Z,2.56
2023-02-19T13:47:52.429Z,2.61
2023-02-19T13:49:09.564Z,3.52
2023-02-19T13:50:26.478Z,2.39
2023-02-19T13:51:43.452Z,2.35
2023-02-19T13:53:00.447Z,3.32
2023-02-19T13:54:17.479Z,1.58
2023-02-19T13:55:34.497Z,2.07
2023-02-19T13:56:51.482Z,1.78
2023-02-19T13:58:08.528Z,1.71
2023-02-19T13:59:25.482Z,2.5
2023-02-19T14:00:42.483Z,2.05
2023-02-19T14:01:59.478Z,2.68
2023-02-19T14:03:16.445Z,2.19
2023-02-19T14:04:33.442Z,1.46
2023-02-19T14:05:50.478Z,2.89
2023-02-19T14:07:07.482Z,2.56
2023-02-19T14:08:24.440Z,2.23
2023-02-19T14:09:41.465Z,3.1
2023-02-19T14:10:58.500Z,2.26
2023-02-19T14:12:16.300Z,3.18
2023-02-19T14:13:32.513Z,3.33
2023-02-19T14:14:49.469Z,3.88
2023-02-19T14:16:06.532Z,2.51
2023-02-19T14:17:23.713Z,3.53
2023-02-19T14:18:40.516Z,3.01
2023-02-19T14:19:57.473Z,3.04
2023-02-19T14:21:14.487Z,2.17
2023-02-19T14:22:31.504Z,2.26
2023-02-19T14:23:48.461Z,2.77
2023-02-19T14:25:05.469Z,3.22
2023-02-19T14:26:22.465Z,3.61
2023-02-19T14:27:39.496Z,2.98
2023-02-19T14:28:56.587Z,4.54
2023-02-19T14:30:13.544Z,3.73
2023-02-19T14:31:30.627Z,2.63
2023-02-19T14:32:51.135Z,2.38
2023-02-19T14:34:04.720Z,2.07
2023-02-19T14:35:21.506Z,4.53
2023-02-19T14:36:38.497Z,1.9
2023-02-19T14:37:55.485Z,2.52
2023-02-19T14:39:12.512Z,4.94
2023-02-19T14:40:29.504Z,3.23
2023-02-19T14:41:46.508Z,2.96
2023-02-19T14:43:03.493Z,2.94
2023-02-19T14:44:20.491Z,3.65
2023-02-19T14:45:37.535Z,2.85
2023-02-19T14:46:54.505Z,2.08
2023-02-19T14:48:12.697Z,2.82
2023-02-19T14:49:28.530Z,2.97
2023-02-19T14:50:45.541Z,3.9
2023-02-19T14:52:02.502Z,2.32
2023-02-19T14:53:19.552Z,3.17
2023-02-19T14:54:36.518Z,3.55
2023-02-19T14:55:53.541Z,3.31
2023-02-19T14:57:10.524Z,2.68
2023-02-19T14:58:27.510Z,3.44
2023-02-19T14:59:44.505Z,2.85
2023-02-19T15:01:01.627Z,2.47
2023-02-19T15:02:18.509Z,2.24
2023-02-19T15:03:35.539Z,2.21
2023-02-19T15:04:52.595Z,2.78
2023-02-19T15:06:09.551Z,3.86
2023-02-19T15:07:26.510Z,3.19
2023-02-19T15:08:43.522Z,1.57
2023-02-19T15:10:02.460Z,1.9
2023-02-19T15:11:17.585Z,1.95
2023-02-19T15:12:34.570Z,3.1
2023-02-19T15:13:51.543Z,2.65
2023-02-19T15:15:08.558Z,1.92
2023-02-19T15:16:25.948Z,1.78
2023-02-19T15:17:42.558Z,2.03
2023-02-19T15:18:59.540Z,3.53
2023-02-19T15:20:16.542Z,2.3
2023-02-19T15:21:33.546Z,1.77
2023-02-19T15:22:50.592Z,1.74
2023-02-19T15:24:07.559Z,1.94
2023-02-19T15:25:24.561Z,0.72
2023-02-19T15:26:41.557Z,1.75
2023-02-19T15:27:58.598Z,2.19
2023-02-19T15:29:15.543Z,1.1
2023-02-19T15:30:32.657Z,1.42
2023-02-19T15:31:49.676Z,2.87
2023-02-19T15:33:06.602Z,2.81
2023-02-19T15:34:23.668Z,1.64
2023-02-19T15:35:40.605Z,1.15
2023-02-19T15:36:57.569Z,0.81
2023-02-19T15:38:14.589Z,2.34
2023-02-19T15:39:31.577Z,1.96
2023-02-19T15:40:48.601Z,1.69
2023-02-19T15:42:05.592Z,1.62
2023-02-19T15:43:22.610Z,1.46
2023-02-19T15:44:39.660Z,1.7
2023-02-19T15:45:56.574Z,1.81
2023-02-19T15:47:13.609Z,1.6
2023-02-19T15:48:30.670Z,1.33
2023-02-19T15:49:47.600Z,1.81
2023-02-19T15:51:04.599Z,1.23
2023-02-19T15:52:21.603Z,2.08
2023-02-19T15:53:38.810Z,1.42
2023-02-19T15:54:55.626Z,1.81
2023-02-19T15:56:12.721Z,1.69
2023-02-19T15:57:29.593Z,2.24
2023-02-19T15:58:46.646Z,2.91
2023-02-19T16:00:03.687Z,1.35
2023-02-19T16:01:20.672Z,2.15
2023-02-19T16:02:37.611Z,2.31
2023-02-19T16:03:54.697Z,1.85
2023-02-19T16:05:11.598Z,2.2
2023-02-19T16:06:28.625Z,2.55
2023-02-19T16:07:45.673Z,2.01
2023-02-19T16:09:02.686Z,3.9
2023-02-19T16:10:19.626Z,1.84
2023-02-19T16:11:36.621Z,2.23
2023-02-19T16:12:53.649Z,3.65
2023-02-19T16:14:10.654Z,1.82
2023-02-19T16:15:27.617Z,2.63
2023-02-19T16:16:44.653Z,2.82
2023-02-19T16:18:01.659Z,2.39
2023-02-19T16:19:18.692Z,1.44
2023-02-19T16:20:35.646Z,2.16
2023-02-19T16:21:52.641Z,1.6
2023-02-19T16:23:09.643Z,2.01
2023-02-19T16:24:26.637Z,1.77
2023-02-19T16:25:43.696Z,2.29
2023-02-19T16:27:00.632Z,2.32
2023-02-19T16:28:17.684Z,1
2023-02-19T16:29:34.699Z,1.28
2023-02-19T16:30:51.714Z,1.73
2023-02-19T16:32:08.792Z,1.44
2023-02-19T16:33:25.661Z,1.5
2023-02-19T16:34:42.710Z,1.38
2023-02-19T16:35:59.697Z,1.35
2023-02-19T16:37:16.729Z,1.78
2023-02-19T16:38:33.659Z,0.94
2023-02-19T16:39:50.662Z,2.5
2023-02-19T16:41:07.676Z,1.64
2023-02-19T16:42:25.281Z,2.1
2023-02-19T16:43:42.680Z,1.44
2023-02-19T16:44:59.644Z,1.82
2023-02-19T16:46:16.657Z,1.32
2023-02-19T16:47:33.693Z,1.48
2023-02-19T16:48:50.659Z,1.34
2023-02-19T16:50:07.680Z,1.23
2023-02-19T16:51:24.683Z,1.46
2023-02-19T16:52:41.710Z,1.34
2023-02-19T16:53:59.050Z,0.89
2023-02-19T16:55:15.683Z,1.04
2023-02-19T16:56:32.697Z,1.33
2023-02-19T16:57:49.691Z,1.47
2023-02-19T16:59:06.777Z,1.51
2023-02-19T17:00:23.684Z,1.09
2023-02-19T17:01:40.693Z,1.19
2023-02-19T17:02:57.671Z,1.54
2023-02-19T17:04:14.820Z,1.31
2023-02-19T17:05:31.693Z,1.71
2023-02-19T17:06:48.724Z,1.13
2023-02-19T17:08:05.689Z,1.26